sensor_id;sensor_type;location;lat;lon;timestamp;P1;durP1;ratioP1;P2;durP2;ratioP2
19735;SDS011;32064;49.310;8.646;2024-03-23T00:53:07;3.35;;;2.67;;
19735;SDS011;32064;49.310;8.646;2024-03-23T00:55:32;4.70;;;2.58;;
19735;SDS011;32064;49.310;8.646;2024-03-23T00:57:57;2.50;;;2.20;;
19735;SDS011;32064;49.310;8.646;2024-03-23T01:00:23;2.78;;;2.53;;
19735;SDS011;32064;49.310;8.646;2024-03-23T01:02:48;3.53;;;3.13;;
19735;SDS011;32064;49.310;8.646;2024-03-23T01:05:14;2.80;;;2.45;;
19735;SDS011;32064;49.310;8.646;2024-03-23T01:07:39;2.28;;;2.08;;
19735;SDS011;32064;49.310;8.646;2024-03-23T01:10:04;6.13;;;2.65;;
19735;SDS011;32064;49.310;8.646;2024-03-23T01:12:30;3.95;;;2.40;;
19735;SDS011;32064;49.310;8.646;2024-03-23T01:14:56;2.50;;;2.30;;
19735;SDS011;32064;49.310;8.646;2024-03-23T01:17:21;3.67;;;2.70;;
19735;SDS011;32064;49.310;8.646;2024-03-23T01:19:46;3.08;;;2.70;;
19735;SDS011;32064;49.310;8.646;2024-03-23T01:22:12;2.20;;;2.00;;
19735;SDS011;32064;49.310;8.646;2024-03-23T01:24:37;2.25;;;2.00;;
19735;SDS011;32064;49.310;8.646;2024-03-23T01:27:03;6.18;;;2.90;;
19735;SDS011;32064;49.310;8.646;2024-03-23T01:29:28;3.95;;;2.40;;
19735;SDS011;32064;49.310;8.646;2024-03-23T01:31:54;2.17;;;2.00;;
19735;SDS011;32064;49.310;8.646;2024-03-23T01:34:19;2.00;;;1.80;;
19735;SDS011;32064;49.310;8.646;2024-03-23T01:36:46;2.65;;;2.10;;
19735;SDS011;32064;49.310;8.646;2024-03-23T01:39:12;1.80;;;1.70;;
19735;SDS011;32064;49.310;8.646;2024-03-23T01:41:37;2.83;;;2.22;;
19735;SDS011;32064;49.310;8.646;2024-03-23T01:44:07;4.85;;;2.20;;
19735;SDS011;32064;49.310;8.646;2024-03-23T01:46:33;3.70;;;2.45;;
19735;SDS011;32064;49.310;8.646;2024-03-23T01:49:02;2.83;;;2.42;;
19735;SDS011;32064;49.310;8.646;2024-03-23T01:51:28;3.40;;;2.60;;
19735;SDS011;32064;49.310;8.646;2024-03-23T01:53:54;2.30;;;2.10;;
19735;SDS011;32064;49.310;8.646;2024-03-23T01:56:21;2.22;;;2.00;;
19735;SDS011;32064;49.310;8.646;2024-03-23T01:58:47;2.78;;;2.03;;
19735;SDS011;32064;49.310;8.646;2024-03-23T02:01:12;2.83;;;2.58;;
19735;SDS011;32064;49.310;8.646;2024-03-23T02:03:38;3.42;;;2.42;;
19735;SDS011;32064;49.310;8.646;2024-03-23T02:06:03;4.57;;;3.10;;
19735;SDS011;32064;49.310;8.646;2024-03-23T02:08:29;1.75;;;1.65;;
19735;SDS011;32064;49.310;8.646;2024-03-23T02:10:56;2.05;;;1.90;;
19735;SDS011;32064;49.310;8.646;2024-03-23T02:13:21;2.60;;;2.28;;
19735;SDS011;32064;49.310;8.646;2024-03-23T02:15:47;1.80;;;1.70;;
19735;SDS011;32064;49.310;8.646;2024-03-23T02:18:13;2.13;;;1.92;;
19735;SDS011;32064;49.310;8.646;2024-03-23T02:20:38;2.47;;;2.22;;
19735;SDS011;32064;49.310;8.646;2024-03-23T02:23:04;5.70;;;1.90;;
19735;SDS011;32064;49.310;8.646;2024-03-23T02:25:33;2.20;;;1.98;;
19735;SDS011;32064;49.310;8.646;2024-03-23T02:27:59;3.65;;;1.75;;
19735;SDS011;32064;49.310;8.646;2024-03-23T02:30:25;3.70;;;1.77;;
19735;SDS011;32064;49.310;8.646;2024-03-23T02:32:51;1.70;;;1.60;;
19735;SDS011;32064;49.310;8.646;2024-03-23T02:35:16;2.70;;;1.83;;
19735;SDS011;32064;49.310;8.646;2024-03-23T02:37:42;1.70;;;1.60;;
19735;SDS011;32064;49.310;8.646;2024-03-23T02:40:07;5.18;;;2.35;;
19735;SDS011;32064;49.310;8.646;2024-03-23T02:42:33;2.78;;;1.77;;
19735;SDS011;32064;49.310;8.646;2024-03-23T02:44:58;3.22;;;2.60;;
19735;SDS011;32064;49.310;8.646;2024-03-23T02:47:24;1.88;;;1.70;;
19735;SDS011;32064;49.310;8.646;2024-03-23T02:49:49;1.85;;;1.75;;
19735;SDS011;32064;49.310;8.646;2024-03-23T02:52:14;5.60;;;1.90;;
19735;SDS011;32064;49.310;8.646;2024-03-23T02:54:40;2.42;;;1.85;;
19735;SDS011;32064;49.310;8.646;2024-03-23T02:57:09;2.92;;;1.75;;
19735;SDS011;32064;49.310;8.646;2024-03-23T02:59:35;1.90;;;1.70;;
19735;SDS011;32064;49.310;8.646;2024-03-23T03:02:00;1.65;;;1.50;;
19735;SDS011;32064;49.310;8.646;2024-03-23T03:04:26;2.50;;;1.80;;
19735;SDS011;32064;49.310;8.646;2024-03-23T03:06:51;2.78;;;1.60;;
19735;SDS011;32064;49.310;8.646;2024-03-23T03:09:17;3.35;;;1.70;;
19735;SDS011;32064;49.310;8.646;2024-03-23T03:11:42;2.28;;;2.08;;
19735;SDS011;32064;49.310;8.646;2024-03-23T03:14:07;2.13;;;1.88;;
19735;SDS011;32064;49.310;8.646;2024-03-23T03:16:33;7.72;;;2.42;;
19735;SDS011;32064;49.310;8.646;2024-03-23T03:18:59;2.15;;;1.95;;
19735;SDS011;32064;49.310;8.646;2024-03-23T03:21:24;2.45;;;1.98;;
19735;SDS011;32064;49.310;8.646;2024-03-23T03:23:50;2.03;;;1.75;;
19735;SDS011;32064;49.310;8.646;2024-03-23T03:26:16;1.75;;;1.58;;
19735;SDS011;32064;49.310;8.646;2024-03-23T03:28:42;4.38;;;3.03;;
19735;SDS011;32064;49.310;8.646;2024-03-23T03:31:09;4.22;;;3.55;;
19735;SDS011;32064;49.310;8.646;2024-03-23T03:33:34;3.88;;;2.75;;
19735;SDS011;32064;49.310;8.646;2024-03-23T03:35:59;2.65;;;2.17;;
19735;SDS011;32064;49.310;8.646;2024-03-23T03:38:25;2.05;;;1.90;;
19735;SDS011;32064;49.310;8.646;2024-03-23T03:40:50;5.60;;;1.77;;
19735;SDS011;32064;49.310;8.646;2024-03-23T03:43:15;3.55;;;1.92;;
19735;SDS011;32064;49.310;8.646;2024-03-23T03:45:41;3.38;;;2.28;;
19735;SDS011;32064;49.310;8.646;2024-03-23T03:48:06;5.55;;;2.33;;
19735;SDS011;32064;49.310;8.646;2024-03-23T03:50:32;3.55;;;2.30;;
19735;SDS011;32064;49.310;8.646;2024-03-23T03:52:57;4.82;;;2.83;;
19735;SDS011;32064;49.310;8.646;2024-03-23T03:55:23;2.47;;;2.28;;
19735;SDS011;32064;49.310;8.646;2024-03-23T03:57:48;3.63;;;2.58;;
19735;SDS011;32064;49.310;8.646;2024-03-23T04:00:13;2.50;;;2.30;;
19735;SDS011;32064;49.310;8.646;2024-03-23T04:02:39;4.28;;;3.67;;
19735;SDS011;32064;49.310;8.646;2024-03-23T04:05:05;19.67;;;4.03;;
19735;SDS011;32064;49.310;8.646;2024-03-23T04:07:31;3.60;;;2.92;;
19735;SDS011;32064;49.310;8.646;2024-03-23T04:09:56;2.75;;;2.55;;
19735;SDS011;32064;49.310;8.646;2024-03-23T04:12:22;3.75;;;2.65;;
19735;SDS011;32064;49.310;8.646;2024-03-23T04:14:48;3.22;;;2.70;;
19735;SDS011;32064;49.310;8.646;2024-03-23T04:17:14;5.53;;;3.25;;
19735;SDS011;32064;49.310;8.646;2024-03-23T04:19:39;4.30;;;3.90;;
19735;SDS011;32064;49.310;8.646;2024-03-23T04:22:05;7.22;;;4.20;;
19735;SDS011;32064;49.310;8.646;2024-03-23T04:24:30;5.00;;;3.95;;
19735;SDS011;32064;49.310;8.646;2024-03-23T04:26:55;5.07;;;3.83;;
19735;SDS011;32064;49.310;8.646;2024-03-23T04:29:21;3.97;;;3.00;;
19735;SDS011;32064;49.310;8.646;2024-03-23T04:31:47;6.03;;;3.58;;
19735;SDS011;32064;49.310;8.646;2024-03-23T04:34:13;3.78;;;3.35;;
19735;SDS011;32064;49.310;8.646;2024-03-23T04:36:38;4.05;;;3.40;;
19735;SDS011;32064;49.310;8.646;2024-03-23T04:39:03;3.17;;;2.88;;
19735;SDS011;32064;49.310;8.646;2024-03-23T04:41:29;4.90;;;3.33;;
19735;SDS011;32064;49.310;8.646;2024-03-23T04:43:55;5.38;;;3.20;;
19735;SDS011;32064;49.310;8.646;2024-03-23T04:46:20;4.40;;;3.63;;
19735;SDS011;32064;49.310;8.646;2024-03-23T04:48:45;7.75;;;3.50;;
19735;SDS011;32064;49.310;8.646;2024-03-23T04:51:11;4.55;;;3.60;;
19735;SDS011;32064;49.310;8.646;2024-03-23T04:53:46;3.47;;;3.17;;
19735;SDS011;32064;49.310;8.646;2024-03-23T04:56:11;4.25;;;3.25;;
19735;SDS011;32064;49.310;8.646;2024-03-23T04:58:37;13.07;;;3.45;;
19735;SDS011;32064;49.310;8.646;2024-03-23T05:01:02;2.60;;;2.40;;
19735;SDS011;32064;49.310;8.646;2024-03-23T05:03:27;3.47;;;2.65;;
19735;SDS011;32064;49.310;8.646;2024-03-23T05:05:53;3.55;;;2.92;;
19735;SDS011;32064;49.310;8.646;2024-03-23T05:08:19;2.65;;;2.28;;
19735;SDS011;32064;49.310;8.646;2024-03-23T05:10:44;2.78;;;2.15;;
19735;SDS011;32064;49.310;8.646;2024-03-23T05:13:10;3.63;;;2.80;;
19735;SDS011;32064;49.310;8.646;2024-03-23T05:15:36;2.33;;;2.13;;
19735;SDS011;32064;49.310;8.646;2024-03-23T05:18:01;3.35;;;2.50;;
19735;SDS011;32064;49.310;8.646;2024-03-23T05:20:27;3.35;;;1.95;;
19735;SDS011;32064;49.310;8.646;2024-03-23T05:22:52;2.13;;;1.92;;
19735;SDS011;32064;49.310;8.646;2024-03-23T05:25:19;2.05;;;1.85;;
19735;SDS011;32064;49.310;8.646;2024-03-23T05:27:45;2.20;;;1.60;;
19735;SDS011;32064;49.310;8.646;2024-03-23T05:30:10;1.63;;;1.48;;
19735;SDS011;32064;49.310;8.646;2024-03-23T05:32:36;1.63;;;1.52;;
19735;SDS011;32064;49.310;8.646;2024-03-23T05:35:01;1.50;;;1.40;;
19735;SDS011;32064;49.310;8.646;2024-03-23T05:37:26;1.70;;;1.38;;
19735;SDS011;32064;49.310;8.646;2024-03-23T05:39:52;1.23;;;1.05;;
19735;SDS011;32064;49.310;8.646;2024-03-23T05:42:17;1.85;;;1.08;;
19735;SDS011;32064;49.310;8.646;2024-03-23T05:44:46;1.45;;;1.35;;
19735;SDS011;32064;49.310;8.646;2024-03-23T05:47:12;1.73;;;0.93;;
19735;SDS011;32064;49.310;8.646;2024-03-23T05:49:41;2.33;;;1.10;;
19735;SDS011;32064;49.310;8.646;2024-03-23T05:52:08;1.80;;;1.05;;
19735;SDS011;32064;49.310;8.646;2024-03-23T05:54:34;1.15;;;1.05;;
19735;SDS011;32064;49.310;8.646;2024-03-23T05:57:00;1.08;;;0.98;;
19735;SDS011;32064;49.310;8.646;2024-03-23T05:59:26;1.10;;;0.77;;
19735;SDS011;32064;49.310;8.646;2024-03-23T06:01:52;0.63;;;0.63;;
19735;SDS011;32064;49.310;8.646;2024-03-23T06:04:17;1.00;;;0.70;;
19735;SDS011;32064;49.310;8.646;2024-03-23T06:06:43;4.10;;;1.42;;
19735;SDS011;32064;49.310;8.646;2024-03-23T06:09:08;0.45;;;0.45;;
19735;SDS011;32064;49.310;8.646;2024-03-23T06:11:33;0.52;;;0.50;;
19735;SDS011;32064;49.310;8.646;2024-03-23T06:13:59;0.68;;;0.68;;
19735;SDS011;32064;49.310;8.646;2024-03-23T06:16:24;0.77;;;0.70;;
19735;SDS011;32064;49.310;8.646;2024-03-23T06:18:53;0.57;;;0.57;;
19735;SDS011;32064;49.310;8.646;2024-03-23T06:21:20;0.52;;;0.52;;
19735;SDS011;32064;49.310;8.646;2024-03-23T06:23:45;0.55;;;0.55;;
19735;SDS011;32064;49.310;8.646;2024-03-23T06:26:17;0.55;;;0.55;;
19735;SDS011;32064;49.310;8.646;2024-03-23T06:28:46;0.50;;;0.50;;
19735;SDS011;32064;49.310;8.646;2024-03-23T06:31:12;0.63;;;0.63;;
19735;SDS011;32064;49.310;8.646;2024-03-23T06:33:37;0.50;;;0.50;;
19735;SDS011;32064;49.310;8.646;2024-03-23T06:36:03;0.55;;;0.55;;
19735;SDS011;32064;49.310;8.646;2024-03-23T06:38:30;0.87;;;0.50;;
19735;SDS011;32064;49.310;8.646;2024-03-23T06:40:56;0.50;;;0.50;;
19735;SDS011;32064;49.310;8.646;2024-03-23T06:43:21;0.50;;;0.50;;
19735;SDS011;32064;49.310;8.646;2024-03-23T06:45:53;0.50;;;0.50;;
19735;SDS011;32064;49.310;8.646;2024-03-23T06:48:19;1.90;;;0.70;;
19735;SDS011;32064;49.310;8.646;2024-03-23T06:50:45;0.40;;;0.40;;
19735;SDS011;32064;49.310;8.646;2024-03-23T06:53:11;0.40;;;0.40;;
19735;SDS011;32064;49.310;8.646;2024-03-23T06:55:40;0.50;;;0.50;;
19735;SDS011;32064;49.310;8.646;2024-03-23T06:58:06;0.82;;;0.63;;
19735;SDS011;32064;49.310;8.646;2024-03-23T07:00:32;0.70;;;0.50;;
19735;SDS011;32064;49.310;8.646;2024-03-23T07:02:58;0.40;;;0.40;;
19735;SDS011;32064;49.310;8.646;2024-03-23T07:05:24;0.30;;;0.30;;
19735;SDS011;32064;49.310;8.646;2024-03-23T07:07:49;0.50;;;0.50;;
19735;SDS011;32064;49.310;8.646;2024-03-23T07:10:15;0.40;;;0.40;;
19735;SDS011;32064;49.310;8.646;2024-03-23T07:12:40;0.40;;;0.40;;
19735;SDS011;32064;49.310;8.646;2024-03-23T07:15:06;0.50;;;0.50;;
19735;SDS011;32064;49.310;8.646;2024-03-23T07:17:33;0.30;;;0.30;;
19735;SDS011;32064;49.310;8.646;2024-03-23T07:20:00;0.40;;;0.40;;
19735;SDS011;32064;49.310;8.646;2024-03-23T07:22:29;0.30;;;0.30;;
19735;SDS011;32064;49.310;8.646;2024-03-23T07:24:59;0.40;;;0.40;;
19735;SDS011;32064;49.310;8.646;2024-03-23T07:27:26;0.60;;;0.60;;
19735;SDS011;32064;49.310;8.646;2024-03-23T07:29:51;0.30;;;0.30;;
19735;SDS011;32064;49.310;8.646;2024-03-23T07:32:16;0.40;;;0.40;;
19735;SDS011;32064;49.310;8.646;2024-03-23T07:34:42;0.30;;;0.30;;
19735;SDS011;32064;49.310;8.646;2024-03-23T07:37:09;0.40;;;0.40;;
19735;SDS011;32064;49.310;8.646;2024-03-23T07:39:35;0.50;;;0.50;;
19735;SDS011;32064;49.310;8.646;2024-03-23T07:42:00;0.45;;;0.45;;
19735;SDS011;32064;49.310;8.646;2024-03-23T07:44:26;0.38;;;0.38;;
19735;SDS011;32064;49.310;8.646;2024-03-23T07:46:51;2.35;;;1.13;;
19735;SDS011;32064;49.310;8.646;2024-03-23T07:49:16;0.43;;;0.43;;
19735;SDS011;32064;49.310;8.646;2024-03-23T07:51:42;0.60;;;0.60;;
19735;SDS011;32064;49.310;8.646;2024-03-23T07:54:07;0.87;;;0.87;;
19735;SDS011;32064;49.310;8.646;2024-03-23T07:56:32;0.40;;;0.40;;
19735;SDS011;32064;49.310;8.646;2024-03-23T07:58:59;0.52;;;0.52;;
19735;SDS011;32064;49.310;8.646;2024-03-23T08:01:24;0.50;;;0.50;;
19735;SDS011;32064;49.310;8.646;2024-03-23T08:03:49;1.38;;;0.82;;
19735;SDS011;32064;49.310;8.646;2024-03-23T08:06:15;3.20;;;1.42;;
19735;SDS011;32064;49.310;8.646;2024-03-23T08:08:43;1.75;;;1.10;;
19735;SDS011;32064;49.310;8.646;2024-03-23T08:11:13;2.95;;;1.00;;
19735;SDS011;32064;49.310;8.646;2024-03-23T08:13:39;1.03;;;0.93;;
19735;SDS011;32064;49.310;8.646;2024-03-23T08:16:06;0.97;;;0.80;;
19735;SDS011;32064;49.310;8.646;2024-03-23T08:18:32;0.50;;;0.50;;
19735;SDS011;32064;49.310;8.646;2024-03-23T08:21:04;0.47;;;0.47;;
19735;SDS011;32064;49.310;8.646;2024-03-23T08:23:31;0.97;;;0.80;;
19735;SDS011;32064;49.310;8.646;2024-03-23T08:26:08;5.28;;;1.20;;
19735;SDS011;32064;49.310;8.646;2024-03-23T08:28:35;0.85;;;0.80;;
19735;SDS011;32064;49.310;8.646;2024-03-23T08:31:02;1.77;;;0.90;;
19735;SDS011;32064;49.310;8.646;2024-03-23T08:33:30;2.70;;;0.80;;
19735;SDS011;32064;49.310;8.646;2024-03-23T08:36:00;1.02;;;0.95;;
19735;SDS011;32064;49.310;8.646;2024-03-23T08:38:29;1.38;;;0.75;;
19735;SDS011;32064;49.310;8.646;2024-03-23T08:40:58;1.02;;;0.68;;
19735;SDS011;32064;49.310;8.646;2024-03-23T08:43:30;1.30;;;0.98;;
19735;SDS011;32064;49.310;8.646;2024-03-23T08:46:07;1.80;;;0.93;;
19735;SDS011;32064;49.310;8.646;2024-03-23T08:48:32;1.10;;;0.90;;
19735;SDS011;32064;49.310;8.646;2024-03-23T08:51:00;2.25;;;0.90;;
19735;SDS011;32064;49.310;8.646;2024-03-23T08:53:27;0.77;;;0.77;;
19735;SDS011;32064;49.310;8.646;2024-03-23T08:55:54;1.33;;;1.00;;
19735;SDS011;32064;49.310;8.646;2024-03-23T08:58:19;1.15;;;1.05;;
19735;SDS011;32064;49.310;8.646;2024-03-23T09:00:45;1.98;;;0.88;;
19735;SDS011;32064;49.310;8.646;2024-03-23T09:03:12;0.85;;;0.82;;
19735;SDS011;32064;49.310;8.646;2024-03-23T09:05:40;1.80;;;0.80;;
19735;SDS011;32064;49.310;8.646;2024-03-23T09:08:06;2.58;;;1.40;;
19735;SDS011;32064;49.310;8.646;2024-03-23T09:10:34;0.63;;;0.50;;
19735;SDS011;32064;49.310;8.646;2024-03-23T09:13:03;6.00;;;1.42;;
19735;SDS011;32064;49.310;8.646;2024-03-23T09:15:28;3.95;;;1.80;;
19735;SDS011;32064;49.310;8.646;2024-03-23T09:17:54;1.73;;;1.25;;
19735;SDS011;32064;49.310;8.646;2024-03-23T09:20:19;4.03;;;1.17;;
19735;SDS011;32064;49.310;8.646;2024-03-23T09:22:44;3.13;;;1.00;;
19735;SDS011;32064;49.310;8.646;2024-03-23T09:25:10;2.70;;;1.55;;
19735;SDS011;32064;49.310;8.646;2024-03-23T09:27:35;3.08;;;1.33;;
19735;SDS011;32064;49.310;8.646;2024-03-23T09:30:01;1.10;;;1.00;;
19735;SDS011;32064;49.310;8.646;2024-03-23T09:32:26;1.25;;;0.88;;
19735;SDS011;32064;49.310;8.646;2024-03-23T09:34:51;3.47;;;1.23;;
19735;SDS011;32064;49.310;8.646;2024-03-23T09:37:17;1.25;;;0.98;;
19735;SDS011;32064;49.310;8.646;2024-03-23T09:39:42;0.60;;;0.60;;
19735;SDS011;32064;49.310;8.646;2024-03-23T09:42:07;2.80;;;1.00;;
19735;SDS011;32064;49.310;8.646;2024-03-23T09:44:33;1.73;;;1.15;;
19735;SDS011;32064;49.310;8.646;2024-03-23T09:47:00;2.10;;;1.00;;
19735;SDS011;32064;49.310;8.646;2024-03-23T09:49:26;16.30;;;1.60;;
19735;SDS011;32064;49.310;8.646;2024-03-23T09:51:52;1.05;;;0.98;;
19735;SDS011;32064;49.310;8.646;2024-03-23T09:54:20;2.40;;;1.30;;
19735;SDS011;32064;49.310;8.646;2024-03-23T09:56:46;1.33;;;1.23;;
19735;SDS011;32064;49.310;8.646;2024-03-23T09:59:12;1.40;;;1.15;;
19735;SDS011;32064;49.310;8.646;2024-03-23T10:01:37;1.02;;;0.93;;
19735;SDS011;32064;49.310;8.646;2024-03-23T10:04:03;2.35;;;1.40;;
19735;SDS011;32064;49.310;8.646;2024-03-23T10:06:28;1.38;;;1.08;;
19735;SDS011;32064;49.310;8.646;2024-03-23T10:08:54;1.48;;;1.13;;
19735;SDS011;32064;49.310;8.646;2024-03-23T10:11:20;1.95;;;1.05;;
19735;SDS011;32064;49.310;8.646;2024-03-23T10:13:46;2.28;;;1.25;;
19735;SDS011;32064;49.310;8.646;2024-03-23T10:16:12;1.40;;;1.02;;
19735;SDS011;32064;49.310;8.646;2024-03-23T10:18:45;2.92;;;1.60;;
19735;SDS011;32064;49.310;8.646;2024-03-23T10:21:10;3.17;;;1.65;;
19735;SDS011;32064;49.310;8.646;2024-03-23T10:23:37;2.30;;;1.38;;
19735;SDS011;32064;49.310;8.646;2024-03-23T10:26:16;0.95;;;0.95;;
19735;SDS011;32064;49.310;8.646;2024-03-23T10:28:53;2.30;;;1.33;;
19735;SDS011;32064;49.310;8.646;2024-03-23T10:31:20;5.25;;;1.50;;
19735;SDS011;32064;49.310;8.646;2024-03-23T10:33:47;1.83;;;1.35;;
19735;SDS011;32064;49.310;8.646;2024-03-23T10:36:13;1.48;;;1.10;;
19735;SDS011;32064;49.310;8.646;2024-03-23T10:38:40;1.30;;;1.08;;
19735;SDS011;32064;49.310;8.646;2024-03-23T10:41:08;2.72;;;1.25;;
19735;SDS011;32064;49.310;8.646;2024-03-23T10:43:35;4.07;;;1.60;;
19735;SDS011;32064;49.310;8.646;2024-03-23T10:46:01;1.98;;;1.33;;
19735;SDS011;32064;49.310;8.646;2024-03-23T10:48:27;6.40;;;1.60;;
19735;SDS011;32064;49.310;8.646;2024-03-23T10:50:52;2.15;;;1.65;;
19735;SDS011;32064;49.310;8.646;2024-03-23T10:53:18;3.35;;;1.38;;
19735;SDS011;32064;49.310;8.646;2024-03-23T10:55:47;2.50;;;1.58;;
19735;SDS011;32064;49.310;8.646;2024-03-23T10:58:14;4.15;;;1.50;;
19735;SDS011;32064;49.310;8.646;2024-03-23T11:00:42;2.72;;;1.15;;
19735;SDS011;32064;49.310;8.646;2024-03-23T11:05:56;2.35;;;1.27;;
19735;SDS011;32064;49.310;8.646;2024-03-23T11:08:29;1.35;;;1.00;;
19735;SDS011;32064;49.310;8.646;2024-03-23T11:11:17;2.83;;;1.27;;
19735;SDS011;32064;49.310;8.646;2024-03-23T11:13:46;4.45;;;1.50;;
19735;SDS011;32064;49.310;8.646;2024-03-23T11:16:21;1.00;;;0.90;;
19735;SDS011;32064;49.310;8.646;2024-03-23T11:18:48;1.25;;;1.05;;
19735;SDS011;32064;49.310;8.646;2024-03-23T11:24:18;5.18;;;1.10;;
19735;SDS011;32064;49.310;8.646;2024-03-23T11:26:45;2.53;;;1.42;;
19735;SDS011;32064;49.310;8.646;2024-03-23T11:29:10;3.85;;;1.65;;
19735;SDS011;32064;49.310;8.646;2024-03-23T11:31:50;1.92;;;1.50;;
19735;SDS011;32064;49.310;8.646;2024-03-23T11:34:17;3.17;;;1.42;;
19735;SDS011;32064;49.310;8.646;2024-03-23T11:36:43;2.45;;;1.40;;
19735;SDS011;32064;49.310;8.646;2024-03-23T11:39:15;3.72;;;1.75;;
19735;SDS011;32064;49.310;8.646;2024-03-23T11:41:49;1.50;;;1.20;;
19735;SDS011;32064;49.310;8.646;2024-03-23T11:46:41;2.17;;;1.23;;
19735;SDS011;32064;49.310;8.646;2024-03-23T11:49:06;1.45;;;0.95;;
19735;SDS011;32064;49.310;8.646;2024-03-23T11:51:31;1.77;;;1.15;;
19735;SDS011;32064;49.310;8.646;2024-03-23T11:54:07;5.30;;;1.48;;
19735;SDS011;32064;49.310;8.646;2024-03-23T11:56:33;2.13;;;1.50;;
19735;SDS011;32064;49.310;8.646;2024-03-23T11:58:58;2.53;;;1.02;;
19735;SDS011;32064;49.310;8.646;2024-03-23T12:01:24;2.85;;;1.38;;
19735;SDS011;32064;49.310;8.646;2024-03-23T12:03:49;3.72;;;1.02;;
19735;SDS011;32064;49.310;8.646;2024-03-23T12:06:19;2.83;;;1.17;;
19735;SDS011;32064;49.310;8.646;2024-03-23T12:08:45;1.90;;;1.67;;
19735;SDS011;32064;49.310;8.646;2024-03-23T12:11:11;1.33;;;1.05;;
19735;SDS011;32064;49.310;8.646;2024-03-23T12:13:38;4.95;;;0.90;;
19735;SDS011;32064;49.310;8.646;2024-03-23T12:18:37;3.00;;;1.20;;
19735;SDS011;32064;49.310;8.646;2024-03-23T12:21:05;1.45;;;1.15;;
19735;SDS011;32064;49.310;8.646;2024-03-23T12:23:30;2.13;;;1.30;;
19735;SDS011;32064;49.310;8.646;2024-03-23T12:25:55;5.28;;;1.27;;
19735;SDS011;32064;49.310;8.646;2024-03-23T12:28:21;1.83;;;1.00;;
19735;SDS011;32064;49.310;8.646;2024-03-23T12:30:46;1.30;;;1.02;;
19735;SDS011;32064;49.310;8.646;2024-03-23T12:33:12;0.80;;;0.80;;
19735;SDS011;32064;49.310;8.646;2024-03-23T12:35:37;1.48;;;1.00;;
19735;SDS011;32064;49.310;8.646;2024-03-23T12:38:02;1.38;;;1.13;;
19735;SDS011;32064;49.310;8.646;2024-03-23T12:40:28;1.23;;;1.08;;
19735;SDS011;32064;49.310;8.646;2024-03-23T12:42:54;0.95;;;0.90;;
19735;SDS011;32064;49.310;8.646;2024-03-23T12:45:19;1.30;;;1.10;;
19735;SDS011;32064;49.310;8.646;2024-03-23T12:47:45;0.98;;;0.90;;
19735;SDS011;32064;49.310;8.646;2024-03-23T12:50:10;0.70;;;0.70;;
19735;SDS011;32064;49.310;8.646;2024-03-23T12:52:36;6.00;;;1.25;;
19735;SDS011;32064;49.310;8.646;2024-03-23T12:55:02;0.90;;;0.85;;
19735;SDS011;32064;49.310;8.646;2024-03-23T12:57:31;2.15;;;1.10;;
19735;SDS011;32064;49.310;8.646;2024-03-23T12:59:58;0.63;;;0.63;;
19735;SDS011;32064;49.310;8.646;2024-03-23T13:02:24;1.13;;;0.77;;
19735;SDS011;32064;49.310;8.646;2024-03-23T13:04:50;1.77;;;1.30;;
19735;SDS011;32064;49.310;8.646;2024-03-23T13:07:17;2.25;;;1.52;;
19735;SDS011;32064;49.310;8.646;2024-03-23T13:09:44;1.27;;;0.90;;
19735;SDS011;32064;49.310;8.646;2024-03-23T13:12:10;1.13;;;0.80;;
19735;SDS011;32064;49.310;8.646;2024-03-23T13:14:37;0.40;;;0.40;;
19735;SDS011;32064;49.310;8.646;2024-03-23T13:17:05;0.50;;;0.50;;
19735;SDS011;32064;49.310;8.646;2024-03-23T13:19:32;0.40;;;0.40;;
19735;SDS011;32064;49.310;8.646;2024-03-23T13:21:58;1.70;;;0.70;;
19735;SDS011;32064;49.310;8.646;2024-03-23T13:24:25;0.52;;;0.52;;
19735;SDS011;32064;49.310;8.646;2024-03-23T13:26:51;0.50;;;0.50;;
19735;SDS011;32064;49.310;8.646;2024-03-23T13:29:17;1.75;;;0.70;;
19735;SDS011;32064;49.310;8.646;2024-03-23T13:31:44;0.65;;;0.65;;
19735;SDS011;32064;49.310;8.646;2024-03-23T13:34:09;0.57;;;0.57;;
19735;SDS011;32064;49.310;8.646;2024-03-23T13:36:35;0.40;;;0.40;;
19735;SDS011;32064;49.310;8.646;2024-03-23T13:39:01;2.75;;;0.90;;
19735;SDS011;32064;49.310;8.646;2024-03-23T13:41:39;0.55;;;0.47;;
19735;SDS011;32064;49.310;8.646;2024-03-23T13:44:09;0.40;;;0.40;;
19735;SDS011;32064;49.310;8.646;2024-03-23T13:46:39;0.52;;;0.52;;
19735;SDS011;32064;49.310;8.646;2024-03-23T13:49:06;0.43;;;0.43;;
19735;SDS011;32064;49.310;8.646;2024-03-23T13:51:31;1.15;;;0.70;;
19735;SDS011;32064;49.310;8.646;2024-03-23T13:53:57;2.30;;;0.90;;
19735;SDS011;32064;49.310;8.646;2024-03-23T13:56:25;0.40;;;0.40;;
19735;SDS011;32064;49.310;8.646;2024-03-23T13:58:51;0.63;;;0.60;;
19735;SDS011;32064;49.310;8.646;2024-03-23T14:01:17;2.05;;;0.70;;
19735;SDS011;32064;49.310;8.646;2024-03-23T14:03:43;0.70;;;0.70;;
19735;SDS011;32064;49.310;8.646;2024-03-23T14:06:09;1.15;;;0.85;;
19735;SDS011;32064;49.310;8.646;2024-03-23T14:08:35;0.55;;;0.55;;
19735;SDS011;32064;49.310;8.646;2024-03-23T14:11:04;1.00;;;0.90;;
19735;SDS011;32064;49.310;8.646;2024-03-23T14:13:30;0.68;;;0.68;;
19735;SDS011;32064;49.310;8.646;2024-03-23T14:15:56;0.73;;;0.70;;
19735;SDS011;32064;49.310;8.646;2024-03-23T14:18:24;1.30;;;0.93;;
19735;SDS011;32064;49.310;8.646;2024-03-23T14:20:55;2.55;;;0.73;;
19735;SDS011;32064;49.310;8.646;2024-03-23T14:23:23;1.65;;;0.82;;
19735;SDS011;32064;49.310;8.646;2024-03-23T14:25:53;1.10;;;0.80;;
19735;SDS011;32064;49.310;8.646;2024-03-23T14:28:19;0.63;;;0.63;;
19735;SDS011;32064;49.310;8.646;2024-03-23T14:30:44;0.50;;;0.50;;
19735;SDS011;32064;49.310;8.646;2024-03-23T14:33:10;1.10;;;0.88;;
19735;SDS011;32064;49.310;8.646;2024-03-23T14:35:35;3.50;;;1.05;;
19735;SDS011;32064;49.310;8.646;2024-03-23T14:38:01;0.68;;;0.68;;
19735;SDS011;32064;49.310;8.646;2024-03-23T14:40:28;0.50;;;0.50;;
19735;SDS011;32064;49.310;8.646;2024-03-23T14:42:54;0.95;;;0.60;;
19735;SDS011;32064;49.310;8.646;2024-03-23T14:45:20;1.42;;;0.52;;
19735;SDS011;32064;49.310;8.646;2024-03-23T14:47:46;0.63;;;0.60;;
19735;SDS011;32064;49.310;8.646;2024-03-23T14:50:12;1.77;;;0.63;;
19735;SDS011;32064;49.310;8.646;2024-03-23T14:52:40;1.55;;;0.70;;
19735;SDS011;32064;49.310;8.646;2024-03-23T14:55:07;1.95;;;0.95;;
19735;SDS011;32064;49.310;8.646;2024-03-23T14:57:33;0.63;;;0.63;;
19735;SDS011;32064;49.310;8.646;2024-03-23T15:00:00;1.00;;;0.70;;
19735;SDS011;32064;49.310;8.646;2024-03-23T15:02:25;1.40;;;0.95;;
19735;SDS011;32064;49.310;8.646;2024-03-23T15:04:52;2.15;;;0.77;;
19735;SDS011;32064;49.310;8.646;2024-03-23T15:07:19;0.77;;;0.77;;
19735;SDS011;32064;49.310;8.646;2024-03-23T15:09:44;1.10;;;0.95;;
19735;SDS011;32064;49.310;8.646;2024-03-23T15:12:10;1.52;;;0.73;;
19735;SDS011;32064;49.310;8.646;2024-03-23T15:14:35;1.55;;;1.10;;
19735;SDS011;32064;49.310;8.646;2024-03-23T15:17:01;1.75;;;0.70;;
19735;SDS011;32064;49.310;8.646;2024-03-23T15:19:29;1.17;;;0.82;;
19735;SDS011;32064;49.310;8.646;2024-03-23T15:21:55;0.77;;;0.77;;
19735;SDS011;32064;49.310;8.646;2024-03-23T15:24:21;0.73;;;0.73;;
19735;SDS011;32064;49.310;8.646;2024-03-23T15:26:47;0.80;;;0.80;;
19735;SDS011;32064;49.310;8.646;2024-03-23T15:29:14;1.05;;;0.80;;
19735;SDS011;32064;49.310;8.646;2024-03-23T15:31:42;1.17;;;0.82;;
19735;SDS011;32064;49.310;8.646;2024-03-23T15:34:07;0.65;;;0.65;;
19735;SDS011;32064;49.310;8.646;2024-03-23T15:36:35;1.88;;;0.80;;
19735;SDS011;32064;49.310;8.646;2024-03-23T15:39:03;2.47;;;0.60;;
19735;SDS011;32064;49.310;8.646;2024-03-23T15:41:29;2.08;;;0.90;;
19735;SDS011;32064;49.310;8.646;2024-03-23T15:43:54;2.63;;;0.90;;
19735;SDS011;32064;49.310;8.646;2024-03-23T15:46:19;0.93;;;0.80;;